Laverlochere, Canada
Current Conditions -  °F | °C
As of 7:25 PM on Friday 24 Oct 2014 (Local Time) from CYXR Reporting Station
Overcast Overcast  
Wind Chill: 50°   Ceiling: 2300
Heat Index: 50°   Visibility: 9mi
Dew Point: 43°   Wind: 9mph
Humidity: 76%   Direction: 210°SSW
Pressure: 29.85"   Gusts: NA
Location:  47.42°N, 79.28°W
Report Text: CYXR 242325Z AUTO 21008KT 9SM BKN023 OVC039 10/06 A2985 RMK SLP118
Loading
Personal Weather Stations






























Interactive Weather Map
Tropical Storm Tracking
New forecast layout! Learn more

10-Day Weather Forecast

Advertisements
Track Severe Weather on mobile